Time;durP1;ratioP1;P1;durP2;ratioP2;P2;SDS_P1;SDS_P2;PMS_P1;PMS_P2;Temp;Humidity;BMP_temperature;BMP_pressure;BME280_temperature;BME280_humidity;BME280_pressure;Samples;Min_cycle;Max_cycle;Signal;HPM_P1;HPM_P2
2023/05/26 00:01:48;;;;;;;14.87;6.17;;;16.00;96.20;;;;;;4992836;28;20502;-76
2023/05/26 00:04:17;;;;;;;11.33;6.10;;;16.00;96.20;;;;;;4993724;28;20472;-75
2023/05/26 00:06:44;;;;;;;12.73;5.53;;;15.90;96.30;;;;;;4992576;28;20477;-74
2023/05/26 00:09:11;;;;;;;15.53;6.50;;;15.90;96.40;;;;;;4993388;28;20469;-74
2023/05/26 00:11:41;;;;;;;11.80;5.70;;;15.90;96.40;;;;;;4988903;28;20860;-76
2023/05/26 00:14:14;;;;;;;12.50;5.80;;;15.90;96.50;;;;;;4992557;28;20975;-76
2023/05/26 00:16:40;;;;;;;15.20;6.53;;;15.90;96.60;;;;;;5000214;28;20583;-76
2023/05/26 00:19:08;;;;;;;13.70;7.53;;;15.90;96.70;;;;;;5012201;28;20522;-75
2023/05/26 00:21:36;;;;;;;14.13;6.83;;;15.90;96.80;;;;;;5012976;28;20959;-74
2023/05/26 00:24:03;;;;;;;16.63;6.97;;;15.80;96.80;;;;;;5012158;28;20468;-75
2023/05/26 00:26:30;;;;;;;12.50;6.67;;;15.80;96.90;;;;;;5012041;28;20488;-74
2023/05/26 00:28:57;;;;;;;13.00;6.67;;;15.80;96.90;;;;;;5012152;28;20527;-75
2023/05/26 00:31:26;;;;;;;14.93;6.97;;;15.80;96.90;;;;;;5013306;28;20453;-76
2023/05/26 00:33:53;;;;;;;16.70;7.33;;;15.80;97.00;;;;;;5012087;28;20484;-76
2023/05/26 00:36:20;;;;;;;21.43;6.70;;;15.70;97.00;;;;;;5016674;28;20526;-75
2023/05/26 00:38:47;;;;;;;16.53;7.40;;;15.70;97.10;;;;;;5016562;28;20576;-75
2023/05/26 00:41:14;;;;;;;13.00;8.20;;;15.70;97.00;;;;;;5016366;28;20464;-75
2023/05/26 00:43:41;;;;;;;15.47;8.30;;;15.70;97.50;;;;;;5017029;28;20549;-75
2023/05/26 00:46:08;;;;;;;12.70;7.67;;;15.70;97.30;;;;;;5016392;28;20469;-73
2023/05/26 00:48:37;;;;;;;18.27;8.50;;;15.70;97.40;;;;;;5016551;28;20480;-75
2023/05/26 00:51:06;;;;;;;31.70;19.40;;;15.60;97.40;;;;;;5015691;28;20476;-75
2023/05/26 00:53:33;;;;;;;26.60;16.20;;;15.60;97.50;;;;;;5016745;28;20472;-75
2023/05/26 00:56:01;;;;;;;26.10;16.30;;;15.60;97.50;;;;;;5015948;28;20868;-76
2023/05/26 00:58:28;;;;;;;36.63;24.97;;;15.60;97.60;;;;;;5016778;28;20472;-75
2023/05/26 01:00:57;;;;;;;29.47;18.03;;;15.60;97.70;;;;;;5016271;28;20503;-75
2023/05/26 01:03:24;;;;;;;23.40;15.27;;;15.50;97.70;;;;;;5015920;28;20468;-74
2023/05/26 01:05:53;;;;;;;20.70;11.80;;;15.50;97.80;;;;;;5015620;28;20927;-74
2023/05/26 01:08:22;;;;;;;17.90;10.17;;;15.50;97.80;;;;;;5016701;28;20472;-75
2023/05/26 01:10:52;;;;;;;14.97;8.60;;;15.40;97.90;;;;;;5015973;28;20468;-75
2023/05/26 01:13:24;;;;;;;14.80;8.73;;;15.40;98.00;;;;;;5023470;28;20476;-75
2023/05/26 01:15:55;;;;;;;17.60;9.40;;;15.30;98.10;;;;;;5024268;28;21025;-74
2023/05/26 01:18:28;;;;;;;17.70;7.90;;;15.30;98.30;;;;;;5021632;28;20460;-74
2023/05/26 01:21:01;;;;;;;17.67;6.97;;;15.30;98.30;;;;;;5022744;28;20983;-75
2023/05/26 01:23:48;;;;;;;18.43;9.60;;;15.30;98.50;;;;;;5018004;28;20476;-75
2023/05/26 01:26:21;;;;;;;10.60;6.87;;;15.20;98.60;;;;;;5015292;28;20461;-74
2023/05/26 01:28:53;;;;;;;17.13;8.77;;;15.20;98.60;;;;;;5015993;28;20544;-75
2023/05/26 01:31:20;;;;;;;20.27;9.23;;;15.10;98.70;;;;;;5016534;28;20464;-75
2023/05/26 01:33:50;;;;;;;15.50;7.40;;;15.10;98.80;;;;;;5017449;28;20469;-75
2023/05/26 01:36:17;;;;;;;15.47;8.93;;;15.10;98.80;;;;;;5016322;28;20798;-75
2023/05/26 01:38:55;;;;;;;16.20;9.20;;;15.10;98.90;;;;;;5016090;28;20465;-75
2023/05/26 01:41:28;;;;;;;13.30;6.13;;;15.10;99.00;;;;;;5016182;28;20520;-75
2023/05/26 01:44:03;;;;;;;14.07;6.03;;;15.10;99.00;;;;;;5016031;28;20530;-75
2023/05/26 01:46:39;;;;;;;12.93;8.23;;;15.00;99.10;;;;;;5013591;28;20457;-75
2023/05/26 01:49:10;;;;;;;11.47;7.87;;;15.00;99.20;;;;;;5014885;28;20465;-75
2023/05/26 01:51:40;;;;;;;15.33;7.50;;;15.00;99.30;;;;;;5015429;28;20528;-75
2023/05/26 01:54:09;;;;;;;14.33;7.30;;;15.00;99.40;;;;;;5015115;28;20466;-75
2023/05/26 01:56:37;;;;;;;17.17;10.63;;;15.00;99.40;;;;;;5015428;28;20864;-75
2023/05/26 01:59:07;;;;;;;14.47;9.40;;;15.00;99.50;;;;;;5015422;28;20527;-75
2023/05/26 02:01:35;;;;;;;11.63;8.07;;;15.00;99.60;;;;;;5015297;28;20507;-74
2023/05/26 02:04:02;;;;;;;10.03;6.50;;;14.90;99.70;;;;;;5015043;28;20551;-74
2023/05/26 02:06:29;;;;;;;15.07;7.80;;;14.90;99.90;;;;;;5013922;28;20928;-74
2023/05/26 02:09:01;;;;;;;20.30;10.40;;;14.90;99.90;;;;;;5015861;28;20523;-75
2023/05/26 02:11:28;;;;;;;14.73;7.47;;;14.90;99.90;;;;;;5015417;28;20461;-74
2023/05/26 02:13:55;;;;;;;15.23;6.90;;;14.80;99.90;;;;;;5020773;28;20473;-75
2023/05/26 02:16:24;;;;;;;19.20;7.50;;;14.80;99.90;;;;;;5020537;28;20469;-74
2023/05/26 02:18:51;;;;;;;15.53;8.30;;;14.80;99.90;;;;;;5024286;28;20492;-75
2023/05/26 02:21:18;;;;;;;12.73;6.63;;;14.80;99.90;;;;;;5027141;28;20535;-75
2023/05/26 02:23:46;;;;;;;20.90;10.47;;;14.80;99.90;;;;;;5022981;28;20520;-73
2023/05/26 02:26:13;;;;;;;16.37;7.50;;;14.80;99.90;;;;;;5015968;28;20523;-75
2023/05/26 02:28:41;;;;;;;14.97;7.00;;;14.80;99.90;;;;;;5015549;28;20840;-74
2023/05/26 02:31:08;;;;;;;12.93;6.33;;;14.70;99.90;;;;;;5017718;28;20465;-75
2023/05/26 02:33:41;;;;;;;15.18;6.88;;;14.70;99.90;;;;;;5018624;28;20481;-75
2023/05/26 02:36:08;;;;;;;13.93;7.03;;;14.70;99.90;;;;;;5018006;28;20253;-75
2023/05/26 02:38:35;;;;;;;16.03;8.43;;;14.60;99.90;;;;;;5011046;28;20504;-75
2023/05/26 02:41:05;;;;;;;21.20;11.50;;;14.60;99.90;;;;;;5007192;28;20493;-75
2023/05/26 02:43:32;;;;;;;19.40;8.60;;;14.60;99.90;;;;;;5007079;28;20473;-75
2023/05/26 02:45:59;;;;;;;19.23;12.10;;;14.60;99.90;;;;;;5008772;28;20482;-74
2023/05/26 02:48:26;;;;;;;16.13;9.05;;;14.60;99.90;;;;;;5004847;28;20470;-75
2023/05/26 02:50:59;;;;;;;13.37;7.67;;;14.50;99.90;;;;;;4998667;28;20218;-74
2023/05/26 02:53:26;;;;;;;23.90;10.53;;;14.50;99.90;;;;;;4999738;28;20987;-74
2023/05/26 02:55:53;;;;;;;18.23;8.50;;;14.50;99.90;;;;;;4997882;28;20532;-75
2023/05/26 02:58:20;;;;;;;15.73;8.88;;;14.50;99.90;;;;;;5002793;28;20246;-74
2023/05/26 03:00:47;;;;;;;20.30;9.60;;;14.50;99.90;;;;;;5002739;28;20332;-76
2023/05/26 03:03:14;;;;;;;9.77;7.60;;;14.50;99.90;;;;;;5004093;28;20489;-75
2023/05/26 03:05:41;;;;;;;14.47;8.90;;;14.40;99.90;;;;;;4998630;28;20605;-73
2023/05/26 03:08:10;;;;;;;14.63;7.10;;;14.40;99.90;;;;;;4997407;28;20478;-73
2023/05/26 03:10:39;;;;;;;15.83;7.40;;;14.40;99.90;;;;;;4995736;28;20490;-74
2023/05/26 03:13:06;;;;;;;17.13;8.40;;;14.40;99.90;;;;;;5000023;28;20470;-75
2023/05/26 03:15:39;;;;;;;10.57;6.85;;;14.40;99.90;;;;;;4999294;28;20473;-74
2023/05/26 03:18:06;;;;;;;12.00;8.73;;;14.40;99.90;;;;;;5001431;28;20233;-73
2023/05/26 03:20:33;;;;;;;13.60;7.90;;;14.30;99.90;;;;;;4997309;28;20232;-74
2023/05/26 03:23:00;;;;;;;17.43;9.00;;;14.30;99.90;;;;;;4998733;28;20466;-75
2023/05/26 03:25:28;;;;;;;17.13;7.77;;;14.30;99.90;;;;;;4998258;28;20486;-74
2023/05/26 03:27:57;;;;;;;12.00;6.60;;;14.30;99.90;;;;;;4998253;28;20466;-74
2023/05/26 03:30:25;;;;;;;19.50;7.43;;;14.20;99.90;;;;;;4998221;28;20466;-74
2023/05/26 03:32:52;;;;;;;16.30;8.07;;;14.20;99.90;;;;;;4994273;28;20854;-74
2023/05/26 03:35:19;;;;;;;16.67;7.47;;;14.20;99.90;;;;;;4995374;28;20474;-75
2023/05/26 03:37:46;;;;;;;11.27;7.27;;;14.20;99.90;;;;;;4993503;28;20478;-74
2023/05/26 03:40:16;;;;;;;16.90;7.67;;;14.20;99.90;;;;;;4994900;28;20470;-74
2023/05/26 03:42:45;;;;;;;13.73;7.20;;;14.20;99.90;;;;;;4995275;28;20470;-75
2023/05/26 03:45:13;;;;;;;12.30;7.22;;;14.20;99.90;;;;;;4995114;28;20664;-76
2023/05/26 03:47:40;;;;;;;11.57;6.77;;;14.20;99.90;;;;;;4994412;28;20262;-75
2023/05/26 03:50:10;;;;;;;23.63;8.20;;;14.20;99.90;;;;;;4984777;28;20496;-75
2023/05/26 03:52:41;;;;;;;14.13;6.67;;;14.20;99.90;;;;;;4994267;28;20556;-74
2023/05/26 03:55:10;;;;;;;13.70;7.53;;;14.20;99.90;;;;;;4994432;28;20470;-75
2023/05/26 03:57:37;;;;;;;16.23;8.13;;;14.20;99.90;;;;;;4993669;28;20556;-74
2023/05/26 04:00:10;;;;;;;16.40;10.37;;;14.20;99.90;;;;;;4995350;28;20284;-75
2023/05/26 04:02:37;;;;;;;14.70;7.00;;;14.20;99.90;;;;;;4999652;28;20852;-75
2023/05/26 04:05:04;;;;;;;13.47;6.00;;;14.20;99.90;;;;;;5002954;28;20234;-75
2023/05/26 04:07:31;;;;;;;13.70;7.10;;;14.20;99.90;;;;;;5000048;28;20481;-75
2023/05/26 04:09:58;;;;;;;12.03;6.70;;;14.20;99.90;;;;;;4998180;28;20462;-75
2023/05/26 04:12:25;;;;;;;13.07;6.73;;;14.20;99.90;;;;;;4997698;28;20787;-75
2023/05/26 04:14:56;;;;;;;17.65;9.18;;;14.20;99.90;;;;;;4996919;28;20481;-74
2023/05/26 04:17:26;;;;;;;12.30;7.40;;;14.20;99.90;;;;;;4997129;28;20618;-75
2023/05/26 04:19:53;;;;;;;12.93;6.53;;;14.20;99.90;;;;;;4996577;28;20508;-74
2023/05/26 04:22:20;;;;;;;14.80;7.63;;;14.20;99.90;;;;;;4997310;28;20573;-74
2023/05/26 04:24:48;;;;;;;21.17;7.97;;;14.20;99.90;;;;;;4996501;28;20556;-75
2023/05/26 04:27:15;;;;;;;18.73;8.23;;;14.20;99.90;;;;;;4997181;28;20476;-74
2023/05/26 04:29:44;;;;;;;11.13;7.43;;;14.10;99.90;;;;;;4996551;28;20465;-75
2023/05/26 04:32:15;;;;;;;14.50;5.97;;;14.10;99.90;;;;;;4997737;28;20458;-74
2023/05/26 04:34:55;;;;;;;11.47;5.50;;;14.10;99.90;;;;;;4990361;28;20963;-74
2023/05/26 04:37:32;;;;;;;13.07;6.57;;;14.10;99.90;;;;;;4997072;28;20469;-74
2023/05/26 04:40:05;;;;;;;22.13;7.33;;;14.20;99.90;;;;;;4997149;28;20501;-74
2023/05/26 04:42:34;;;;;;;17.57;5.80;;;14.20;99.90;;;;;;4996561;28;20454;-74
2023/05/26 04:45:02;;;;;;;24.65;9.55;;;14.20;99.90;;;;;;4996527;28;20501;-75
2023/05/26 04:47:32;;;;;;;13.97;6.63;;;14.20;99.90;;;;;;4996199;28;20723;-74
2023/05/26 04:50:00;;;;;;;14.63;6.63;;;14.20;99.90;;;;;;4996843;28;20503;-75
2023/05/26 04:52:31;;;;;;;17.65;7.20;;;14.20;99.90;;;;;;4996531;28;20944;-75
2023/05/26 04:55:02;;;;;;;26.20;8.30;;;14.20;99.90;;;;;;4995918;28;20234;-75
2023/05/26 04:57:28;;;;;;;17.60;7.70;;;14.20;99.90;;;;;;4996843;28;20548;-74
2023/05/26 04:59:55;;;;;;;12.40;7.60;;;14.30;99.90;;;;;;4996915;28;20493;-74
2023/05/26 05:02:23;;;;;;;12.77;7.00;;;14.30;99.90;;;;;;4997078;28;20474;-74
2023/05/26 05:04:50;;;;;;;14.47;7.37;;;14.40;99.90;;;;;;4999719;28;20457;-76
2023/05/26 05:07:18;;;;;;;19.53;7.00;;;14.50;99.90;;;;;;4996760;28;20502;-75
2023/05/26 05:09:45;;;;;;;15.37;7.87;;;14.50;99.90;;;;;;4986334;28;20474;-76
2023/05/26 05:12:12;;;;;;;23.13;7.43;;;14.50;99.90;;;;;;4995832;28;20474;-75
2023/05/26 05:14:40;;;;;;;13.33;6.60;;;14.60;99.90;;;;;;4997690;28;20457;-75
2023/05/26 05:17:07;;;;;;;15.73;6.00;;;14.60;99.90;;;;;;4997167;28;20474;-75
2023/05/26 05:19:34;;;;;;;14.40;6.40;;;14.60;99.90;;;;;;4995736;28;20470;-75
2023/05/26 05:22:02;;;;;;;15.13;7.53;;;14.70;99.90;;;;;;4995228;28;20470;-74
2023/05/26 05:24:30;;;;;;;10.53;5.90;;;14.80;99.90;;;;;;4996066;28;20501;-75
2023/05/26 05:26:58;;;;;;;16.60;7.63;;;14.80;99.90;;;;;;4996783;28;20550;-75
2023/05/26 05:29:25;;;;;;;16.00;7.23;;;14.90;99.90;;;;;;4995476;28;20470;-76
2023/05/26 05:31:52;;;;;;;10.60;6.33;;;14.90;99.90;;;;;;4996111;28;20470;-75
2023/05/26 05:34:19;;;;;;;14.13;5.70;;;15.00;99.90;;;;;;4994947;28;20477;-74
2023/05/26 05:36:46;;;;;;;16.87;6.93;;;15.00;99.90;;;;;;4996378;28;20466;-75
2023/05/26 05:39:13;;;;;;;15.80;7.73;;;15.10;99.90;;;;;;4996143;28;20516;-75
2023/05/26 05:41:41;;;;;;;9.10;5.20;;;15.20;99.90;;;;;;4995091;28;20454;-75
2023/05/26 05:44:33;;;;;;;15.17;5.10;;;15.20;99.90;;;;;;4996287;28;20485;-74
2023/05/26 05:47:00;;;;;;;15.60;6.27;;;15.30;99.90;;;;;;5007807;28;20470;-75
2023/05/26 05:49:27;;;;;;;12.97;5.57;;;15.30;99.90;;;;;;4993486;28;20484;-74
2023/05/26 05:51:57;;;;;;;9.83;5.53;;;15.40;99.90;;;;;;4995793;28;20466;-76
2023/05/26 05:54:24;;;;;;;17.00;5.53;;;15.40;99.90;;;;;;4995382;28;20470;-76
2023/05/26 05:56:55;;;;;;;15.97;6.30;;;15.50;99.90;;;;;;4995356;28;20540;-74
2023/05/26 05:59:22;;;;;;;15.50;6.10;;;15.50;99.90;;;;;;4993734;28;20477;-74
2023/05/26 06:01:49;;;;;;;12.67;5.60;;;15.60;99.90;;;;;;4994327;28;20477;-76
2023/05/26 06:04:16;;;;;;;15.73;5.90;;;15.60;99.90;;;;;;4994321;28;20518;-75
2023/05/26 06:06:43;;;;;;;19.00;8.23;;;15.70;99.90;;;;;;4995142;28;20463;-74
2023/05/26 06:09:10;;;;;;;10.67;4.80;;;15.70;99.90;;;;;;4995027;28;20473;-75
2023/05/26 06:11:38;;;;;;;17.93;6.50;;;15.80;99.90;;;;;;4995032;28;20476;-74
2023/05/26 06:14:06;;;;;;;17.93;7.07;;;15.90;99.90;;;;;;4995508;28;20470;-74
2023/05/26 06:16:37;;;;;;;13.20;6.90;;;16.00;99.90;;;;;;4995059;28;20553;-74
2023/05/26 06:19:04;;;;;;;21.37;6.60;;;16.10;99.90;;;;;;4993632;28;21001;-75
2023/05/26 06:21:31;;;;;;;16.50;6.37;;;16.10;99.90;;;;;;4994812;28;20788;-74
2023/05/26 06:23:58;;;;;;;27.53;8.00;;;16.30;99.90;;;;;;4994799;28;20579;-75
2023/05/26 06:26:25;;;;;;;17.37;6.40;;;16.40;99.90;;;;;;4994361;28;20508;-75
2023/05/26 06:28:53;;;;;;;13.70;6.50;;;16.50;99.90;;;;;;4994998;28;20500;-75
2023/05/26 06:31:21;;;;;;;12.97;5.47;;;16.50;99.90;;;;;;4994241;28;20835;-75
2023/05/26 06:33:48;;;;;;;15.60;6.10;;;16.70;99.90;;;;;;4993411;28;21031;-74
2023/05/26 06:36:16;;;;;;;18.00;7.43;;;16.80;99.90;;;;;;4994368;28;20497;-74
2023/05/26 06:38:43;;;;;;;12.23;6.97;;;16.90;99.90;;;;;;4994490;28;20473;-74
2023/05/26 06:41:10;;;;;;;14.07;8.57;;;17.10;99.90;;;;;;4994128;28;20855;-75
2023/05/26 06:43:40;;;;;;;21.17;7.20;;;17.20;99.90;;;;;;4994288;28;20457;-73
2023/05/26 06:46:07;;;;;;;15.57;8.37;;;17.40;99.90;;;;;;4994222;28;20477;-73
2023/05/26 06:48:36;;;;;;;15.27;7.50;;;17.60;99.90;;;;;;4994147;28;20528;-73
2023/05/26 06:51:03;;;;;;;13.13;6.60;;;17.70;99.60;;;;;;4994279;28;20478;-73
2023/05/26 06:53:30;;;;;;;20.60;7.63;;;17.90;99.30;;;;;;4993898;28;20485;-73
2023/05/26 06:55:57;;;;;;;13.13;6.60;;;18.00;98.90;;;;;;4994061;28;20474;-73
2023/05/26 06:58:31;;;;;;;15.73;5.97;;;18.10;98.50;;;;;;4982528;28;20478;-73
2023/05/26 07:00:59;;;;;;;10.20;6.20;;;18.30;98.40;;;;;;4993359;28;20474;-73
2023/05/26 07:03:27;;;;;;;15.70;7.07;;;18.50;98.20;;;;;;4993680;28;20470;-76
2023/05/26 07:05:55;;;;;;;15.47;6.00;;;18.60;97.60;;;;;;4994123;28;20565;-75
2023/05/26 07:08:23;;;;;;;16.37;6.33;;;18.80;97.10;;;;;;4993827;28;20474;-74
2023/05/26 07:10:50;;;;;;;17.20;5.50;;;18.80;96.60;;;;;;4994093;28;20535;-74
2023/05/26 07:13:20;;;;;;;10.53;6.60;;;18.90;96.50;;;;;;4982695;28;20474;-73
2023/05/26 07:15:47;;;;;;;9.87;5.63;;;18.90;96.40;;;;;;4993399;28;20470;-75
2023/05/26 07:18:14;;;;;;;10.60;5.50;;;19.00;96.00;;;;;;4994336;28;20530;-75
2023/05/26 07:20:41;;;;;;;13.33;5.97;;;19.00;95.70;;;;;;4993144;28;20980;-74
2023/05/26 07:23:10;;;;;;;13.00;6.93;;;19.10;95.60;;;;;;4994205;28;20480;-75
2023/05/26 07:25:37;;;;;;;13.83;5.90;;;19.20;95.20;;;;;;4982372;28;20959;-74
2023/05/26 07:28:04;;;;;;;11.13;4.67;;;19.20;94.20;;;;;;4993324;28;20488;-74
2023/05/26 07:30:33;;;;;;;14.87;5.43;;;19.40;94.20;;;;;;4993133;28;20478;-74
2023/05/26 07:33:00;;;;;;;15.37;5.23;;;19.60;93.70;;;;;;4994255;28;20553;-76
2023/05/26 07:35:28;;;;;;;15.53;5.40;;;19.60;93.60;;;;;;4993474;28;20474;-74
2023/05/26 07:37:58;;;;;;;12.57;6.13;;;19.70;93.50;;;;;;4993636;28;20464;-75
2023/05/26 07:40:29;;;;;;;13.43;5.37;;;19.90;93.20;;;;;;4993465;28;20484;-76
2023/05/26 07:42:56;;;;;;;19.07;6.10;;;20.00;92.70;;;;;;4993393;28;20520;-75
2023/05/26 07:45:23;;;;;;;14.10;5.73;;;20.20;92.30;;;;;;4993062;28;20478;-75
2023/05/26 07:47:50;;;;;;;17.97;5.10;;;20.30;92.20;;;;;;4992750;28;20537;-74
2023/05/26 07:50:17;;;;;;;17.80;6.53;;;20.40;91.80;;;;;;4993564;28;20960;-75
2023/05/26 07:52:44;;;;;;;12.33;5.97;;;20.50;91.20;;;;;;4993096;28;20517;-74
2023/05/26 07:55:11;;;;;;;12.67;6.30;;;20.50;90.90;;;;;;4993647;28;20844;-75
2023/05/26 07:57:39;;;;;;;11.73;5.80;;;20.60;90.70;;;;;;4993430;28;20470;-76
2023/05/26 08:00:07;;;;;;;21.73;6.00;;;20.70;90.30;;;;;;4982927;28;20474;-76
2023/05/26 08:02:35;;;;;;;12.30;6.23;;;20.80;88.90;;;;;;4993085;28;20960;-75
2023/05/26 08:05:02;;;;;;;15.73;7.43;;;20.80;88.70;;;;;;4992924;28;20524;-76
2023/05/26 08:07:32;;;;;;;20.20;6.97;;;20.90;88.70;;;;;;4993179;28;20481;-76
2023/05/26 08:09:59;;;;;;;13.27;6.30;;;21.00;87.90;;;;;;4992751;28;20498;-75
2023/05/26 08:12:26;;;;;;;11.00;5.20;;;21.00;87.30;;;;;;4993042;28;20505;-75
2023/05/26 08:14:54;;;;;;;11.43;4.60;;;21.10;87.30;;;;;;4992770;28;20481;-76
2023/05/26 08:17:22;;;;;;;11.70;5.93;;;21.20;86.90;;;;;;4993122;28;20462;-76
2023/05/26 08:19:48;;;;;;;12.37;5.27;;;21.30;86.60;;;;;;4992682;28;20822;-76
2023/05/26 08:22:16;;;;;;;13.13;5.20;;;21.40;86.40;;;;;;4992638;28;20497;-75
2023/05/26 08:24:42;;;;;;;13.43;6.40;;;21.50;85.80;;;;;;4992404;28;20520;-75
2023/05/26 08:27:10;;;;;;;10.90;5.60;;;21.50;85.20;;;;;;4993325;28;20478;-74
2023/05/26 08:29:37;;;;;;;14.13;6.07;;;21.60;85.00;;;;;;4993146;28;20469;-75
2023/05/26 08:32:09;;;;;;;12.63;5.27;;;21.60;84.60;;;;;;4992577;28;20546;-75
2023/05/26 08:34:39;;;;;;;14.83;4.83;;;21.60;84.60;;;;;;4993525;28;20466;-75
2023/05/26 08:37:06;;;;;;;12.47;5.53;;;21.70;84.50;;;;;;4992912;28;20462;-74
2023/05/26 08:39:33;;;;;;;18.27;6.43;;;21.60;84.00;;;;;;4992710;28;20470;-74
2023/05/26 08:42:03;;;;;;;18.83;6.37;;;21.60;83.70;;;;;;4991961;28;20470;-74
2023/05/26 08:44:31;;;;;;;11.60;4.73;;;21.60;83.40;;;;;;4992956;28;20498;-74
2023/05/26 08:47:00;;;;;;;13.07;6.47;;;21.60;83.50;;;;;;4992227;28;20517;-74
2023/05/26 08:49:31;;;;;;;14.33;5.60;;;21.50;82.30;;;;;;4992674;28;20469;-75
2023/05/26 08:52:06;;;;;;;12.03;5.07;;;21.40;81.50;;;;;;4993010;28;20502;-75
2023/05/26 08:54:33;;;;;;;15.70;4.77;;;21.40;81.00;;;;;;4993173;28;20983;-76
2023/05/26 08:57:03;;;;;;;9.90;4.57;;;21.40;81.30;;;;;;4995450;28;21029;-76
2023/05/26 08:59:32;;;;;;;9.60;4.57;;;21.30;80.90;;;;;;4996484;28;20864;-75
2023/05/26 09:01:59;;;;;;;12.67;4.90;;;21.30;80.30;;;;;;4995948;28;20470;-75
2023/05/26 09:04:31;;;;;;;9.37;4.87;;;21.30;80.20;;;;;;4996393;28;20505;-75
2023/05/26 09:06:58;;;;;;;9.40;5.20;;;21.30;80.60;;;;;;4996013;28;20544;-76
2023/05/26 09:09:25;;;;;;;13.40;5.50;;;21.30;80.60;;;;;;4985608;28;20466;-76
2023/05/26 09:11:53;;;;;;;15.73;5.40;;;21.30;79.30;;;;;;4995640;28;20469;-76
2023/05/26 09:14:22;;;;;;;8.13;3.80;;;21.30;79.00;;;;;;4996154;28;20466;-76
2023/05/26 09:16:54;;;;;;;9.47;4.00;;;21.20;79.00;;;;;;4995629;28;20502;-76
2023/05/26 09:19:21;;;;;;;8.73;4.20;;;21.20;79.40;;;;;;4996197;28;20556;-76
2023/05/26 09:21:51;;;;;;;8.97;3.93;;;21.10;78.90;;;;;;4996053;28;20465;-76
2023/05/26 09:24:20;;;;;;;10.50;4.50;;;21.10;77.40;;;;;;4995926;28;20476;-75
2023/05/26 09:26:48;;;;;;;7.20;3.50;;;21.00;77.50;;;;;;4995426;28;20512;-75
2023/05/26 09:29:16;;;;;;;15.70;6.10;;;21.00;77.20;;;;;;4995637;28;20532;-75
2023/05/26 09:31:45;;;;;;;21.33;5.17;;;21.00;76.80;;;;;;4995657;28;20478;-76
2023/05/26 09:34:21;;;;;;;12.40;4.50;;;21.00;76.70;;;;;;4995240;28;20470;-76
2023/05/26 09:36:53;;;;;;;8.80;4.80;;;21.00;76.30;;;;;;4995201;28;20541;-75
2023/05/26 09:39:20;;;;;;;11.60;5.83;;;21.00;75.80;;;;;;4995238;28;20561;-76
2023/05/26 09:41:47;;;;;;;7.70;3.93;;;21.00;75.20;;;;;;4991224;28;20488;-76
2023/05/26 09:44:16;;;;;;;12.03;4.00;;;20.90;75.00;;;;;;4992493;28;20568;-76
2023/05/26 09:46:44;;;;;;;10.67;4.57;;;20.80;75.50;;;;;;5009526;28;20481;-76
2023/05/26 09:49:13;;;;;;;10.27;4.53;;;20.90;75.20;;;;;;5013949;28;20469;-76
2023/05/26 09:51:40;;;;;;;11.23;4.67;;;20.90;74.40;;;;;;5014711;28;20551;-76
2023/05/26 09:54:10;;;;;;;11.67;6.33;;;20.90;73.90;;;;;;5013437;28;20813;-75
2023/05/26 09:56:42;;;;;;;9.10;4.47;;;20.90;73.90;;;;;;5014245;28;20552;-76
2023/05/26 09:59:11;;;;;;;7.90;3.90;;;20.90;74.00;;;;;;5014178;28;20531;-74
2023/05/26 10:01:39;;;;;;;12.13;5.60;;;20.90;72.10;;;;;;5002115;28;20496;-76
2023/05/26 10:04:08;;;;;;;7.53;4.00;;;20.90;71.80;;;;;;5013321;28;20477;-76
2023/05/26 10:06:37;;;;;;;9.97;4.83;;;20.90;72.60;;;;;;5011698;28;20480;-76
2023/05/26 10:09:06;;;;;;;5.70;3.40;;;20.90;70.60;;;;;;5014564;28;20491;-76
2023/05/26 10:11:39;;;;;;;9.00;4.37;;;20.90;71.10;;;;;;5014249;28;20469;-75
2023/05/26 10:14:07;;;;;;;7.03;3.63;;;21.00;70.10;;;;;;5006742;28;20858;-75
2023/05/26 10:16:35;;;;;;;10.10;5.03;;;21.00;70.50;;;;;;5014751;28;20512;-75
2023/05/26 10:19:02;;;;;;;11.97;4.60;;;21.00;70.10;;;;;;5013253;28;20888;-76
2023/05/26 10:21:39;;;;;;;12.13;4.63;;;21.00;70.50;;;;;;5004541;28;20481;-75
2023/05/26 10:24:12;;;;;;;11.73;4.80;;;21.00;70.40;;;;;;4996246;28;21154;-75
2023/05/26 10:26:49;;;;;;;11.30;4.43;;;21.00;70.80;;;;;;4995034;28;20504;-75
2023/05/26 10:29:19;;;;;;;10.43;4.77;;;21.00;70.60;;;;;;4993891;28;20881;-76
2023/05/26 10:31:46;;;;;;;12.27;4.60;;;21.00;70.80;;;;;;4995641;28;20483;-76
2023/05/26 10:34:14;;;;;;;12.70;3.90;;;20.90;70.30;;;;;;5005058;28;20472;-75
2023/05/26 10:36:42;;;;;;;14.00;6.30;;;20.90;70.10;;;;;;5012673;28;20535;-76
2023/05/26 10:39:13;;;;;;;13.87;4.40;;;20.80;70.60;;;;;;5009055;28;20515;-76
2023/05/26 10:41:49;;;;;;;9.53;4.87;;;20.80;70.50;;;;;;5011089;28;20469;-75
2023/05/26 10:44:41;;;;;;;11.07;4.70;;;20.80;70.60;;;;;;5010721;28;20476;-75
2023/05/26 10:47:13;;;;;;;8.93;4.27;;;20.80;70.30;;;;;;5008227;28;20465;-74
2023/05/26 10:49:40;;;;;;;13.10;4.60;;;20.90;70.20;;;;;;5012913;28;20540;-75
2023/05/26 10:52:13;;;;;;;11.47;4.90;;;20.90;70.40;;;;;;5011171;28;20496;-74
2023/05/26 10:54:42;;;;;;;9.27;4.20;;;20.90;70.90;;;;;;5010013;28;20951;-74
2023/05/26 10:57:29;;;;;;;8.37;4.50;;;21.00;70.40;;;;;;5013588;28;20473;-75
2023/05/26 11:00:05;;;;;;;9.80;4.57;;;21.10;70.20;;;;;;4993014;28;20487;-75
2023/05/26 11:02:38;;;;;;;7.40;4.23;;;21.10;70.10;;;;;;5007036;28;20488;-75
2023/05/26 11:05:05;;;;;;;13.50;5.17;;;21.10;70.10;;;;;;4992549;28;20473;-74
2023/05/26 11:07:32;;;;;;;11.10;4.57;;;21.10;68.80;;;;;;4993995;28;20561;-75
2023/05/26 11:10:05;;;;;;;12.13;5.63;;;21.10;68.90;;;;;;4992867;28;20540;-74
2023/05/26 11:12:37;;;;;;;11.33;3.97;;;21.10;68.40;;;;;;4992680;28;20484;-75
2023/05/26 11:15:26;;;;;;;8.27;4.30;;;21.10;67.30;;;;;;4991381;28;20466;-75
2023/05/26 11:17:58;;;;;;;5.90;4.40;;;21.20;67.70;;;;;;4988496;28;20467;-75
2023/05/26 11:20:25;;;;;;;11.37;5.70;;;21.20;67.90;;;;;;4989965;28;20500;-74
2023/05/26 11:22:53;;;;;;;10.13;6.00;;;21.20;68.40;;;;;;4993331;28;20557;-74
2023/05/26 11:25:20;;;;;;;11.63;5.80;;;21.20;68.40;;;;;;4994114;28;20803;-75
2023/05/26 11:27:49;;;;;;;13.20;4.73;;;21.30;67.90;;;;;;4993458;28;20504;-74
2023/05/26 11:30:19;;;;;;;10.73;3.80;;;21.20;67.60;;;;;;4993183;28;20470;-75
2023/05/26 11:32:47;;;;;;;6.00;3.20;;;21.20;66.70;;;;;;4993560;28;20470;-75
2023/05/26 11:35:24;;;;;;;9.20;3.27;;;21.20;66.20;;;;;;4991279;28;20468;-77
2023/05/26 11:37:51;;;;;;;7.13;3.57;;;21.30;59.10;;;;;;4993848;28;20457;-75
2023/05/26 11:40:18;;;;;;;9.17;4.10;;;21.30;60.40;;;;;;4993689;28;20461;-74
2023/05/26 11:42:46;;;;;;;7.83;3.33;;;21.20;62.90;;;;;;4993900;28;20470;-75
2023/05/26 11:45:14;;;;;;;7.37;3.67;;;21.30;63.60;;;;;;4991809;28;20791;-74
2023/05/26 11:47:45;;;;;;;5.37;4.07;;;21.40;59.60;;;;;;4992617;28;20481;-74
2023/05/26 11:50:13;;;;;;;9.13;2.77;;;21.40;57.80;;;;;;4986989;28;20819;-75
2023/05/26 11:52:43;;;;;;;6.90;3.83;;;21.30;57.40;;;;;;5006129;28;20473;-75
2023/05/26 11:55:11;;;;;;;8.20;3.77;;;21.30;56.20;;;;;;5004705;28;20834;-74
2023/05/26 11:57:44;;;;;;;9.37;3.67;;;21.30;53.60;;;;;;5007126;28;20480;-73
2023/05/26 12:00:17;;;;;;;5.83;3.70;;;21.30;53.60;;;;;;5009103;28;20492;-74
2023/05/26 12:02:48;;;;;;;5.73;2.93;;;21.40;53.80;;;;;;5011946;28;20475;-74
2023/05/26 12:05:19;;;;;;;9.93;3.80;;;21.40;53.90;;;;;;5009997;28;20468;-74
2023/05/26 12:08:01;;;;;;;6.83;3.20;;;21.40;54.10;;;;;;5006870;28;20484;-74
2023/05/26 12:10:30;;;;;;;10.10;4.17;;;21.40;54.60;;;;;;4999644;28;20517;-75
2023/05/26 12:12:57;;;;;;;6.43;3.47;;;21.40;54.70;;;;;;4988837;28;20462;-75
2023/05/26 12:15:26;;;;;;;4.23;2.80;;;21.40;55.20;;;;;;4987356;28;20497;-74
2023/05/26 12:17:54;;;;;;;12.23;5.20;;;21.50;55.40;;;;;;5007616;28;20477;-74
2023/05/26 12:20:23;;;;;;;5.97;3.30;;;21.50;55.40;;;;;;5011050;28;20788;-74
2023/05/26 12:22:51;;;;;;;4.20;2.80;;;21.50;54.40;;;;;;4996572;28;20478;-75
2023/05/26 12:25:24;;;;;;;9.87;5.43;;;21.60;54.40;;;;;;5006076;28;20565;-76
2023/05/26 12:27:52;;;;;;;10.00;3.33;;;21.50;53.40;;;;;;5009143;28;20970;-75
2023/05/26 12:30:21;;;;;;;11.57;3.77;;;21.50;53.50;;;;;;5012890;28;20463;-75
2023/05/26 12:32:50;;;;;;;10.93;5.10;;;21.60;54.10;;;;;;5007199;28;20814;-75
2023/05/26 12:35:17;;;;;;;14.03;4.03;;;21.60;54.20;;;;;;5000959;28;20787;-75
2023/05/26 12:37:45;;;;;;;5.80;3.47;;;21.60;53.60;;;;;;5013906;28;20477;-76
2023/05/26 12:40:13;;;;;;;6.67;3.70;;;21.60;53.10;;;;;;5009083;28;20456;-75
2023/05/26 12:42:41;;;;;;;5.10;3.00;;;21.60;53.60;;;;;;5013636;28;20560;-76
2023/05/26 12:45:09;;;;;;;6.00;3.03;;;21.60;53.60;;;;;;5004458;28;21054;-74
2023/05/26 12:47:36;;;;;;;6.30;3.40;;;21.60;53.70;;;;;;5006924;28;20917;-75